createdAt,value
2023-09-13T00:03:45.568Z,11.48
2023-09-13T00:08:48.514Z,11.02
2023-09-13T00:13:51.340Z,10.88
2023-09-13T00:18:54.078Z,9.73
2023-09-13T00:23:56.730Z,10.25
2023-09-13T00:28:59.394Z,10.32
2023-09-13T00:34:02.776Z,10.35
2023-09-13T00:39:06.927Z,10.95
2023-09-13T00:44:09.627Z,10.52
2023-09-13T00:49:12.393Z,11.05
2023-09-13T00:54:15.382Z,11.85
2023-09-13T00:59:20.112Z,10.70
2023-09-13T01:04:23.251Z,11.23
2023-09-13T01:09:28.015Z,11.57
2023-09-13T01:14:30.692Z,10.70
2023-09-13T01:20:08.217Z,10.68
2023-09-13T01:25:18.946Z,10.27
2023-09-13T01:30:23.766Z,10.93
2023-09-13T01:35:26.580Z,11.13
2023-09-13T01:40:34.129Z,11.88
2023-09-13T01:45:38.445Z,11.13
2023-09-13T01:50:41.979Z,10.82
2023-09-13T01:55:45.017Z,12.20
2023-09-13T02:00:48.128Z,11.52
2023-09-13T02:05:51.086Z,11.85
2023-09-13T02:10:54.076Z,10.95
2023-09-13T02:15:56.876Z,12.95
2023-09-13T02:20:59.801Z,12.32
2023-09-13T02:26:02.588Z,11.57
2023-09-13T02:31:05.664Z,11.45
2023-09-13T02:36:08.822Z,11.60
2023-09-13T02:41:12.165Z,13.80
2023-09-13T02:46:15.007Z,14.98
2023-09-13T02:51:17.922Z,16.55
2023-09-13T02:56:20.778Z,15.70
2023-09-13T03:01:23.809Z,14.88
2023-09-13T03:06:26.660Z,16.25
2023-09-13T03:11:31.036Z,15.63
2023-09-13T03:16:34.163Z,15.55
2023-09-13T03:21:38.020Z,14.18
2023-09-13T03:26:41.000Z,12.75
2023-09-13T03:31:44.608Z,12.80
2023-09-13T03:36:51.192Z,13.35
2023-09-13T03:41:54.545Z,13.85
2023-09-13T03:46:58.238Z,13.35
2023-09-13T03:52:02.826Z,12.25
2023-09-13T03:57:07.044Z,13.02
2023-09-13T04:02:10.177Z,13.40
2023-09-13T04:07:13.235Z,12.50
2023-09-13T04:12:16.120Z,14.40
2023-09-13T04:17:19.852Z,14.98
2023-09-13T04:22:22.966Z,14.07
2023-09-13T04:27:26.432Z,29.02
2023-09-13T04:32:30.306Z,19.70
2023-09-13T04:37:34.377Z,16.48
2023-09-13T04:42:51.356Z,16.17
2023-09-13T04:47:55.033Z,15.50
2023-09-13T04:52:57.725Z,15.30
2023-09-13T04:58:00.957Z,14.73
2023-09-13T05:03:04.042Z,16.45
2023-09-13T05:08:06.892Z,14.88
2023-09-13T05:13:10.229Z,13.70
2023-09-13T05:18:13.236Z,14.27
2023-09-13T05:23:15.905Z,12.13
2023-09-13T05:28:18.570Z,11.82
2023-09-13T05:33:21.438Z,12.25
2023-09-13T05:38:24.810Z,12.23
2023-09-13T05:43:30.449Z,11.52
2023-09-13T05:48:34.178Z,10.18
2023-09-13T05:53:37.016Z,10.25
2023-09-13T05:58:44.774Z,10.13
2023-09-13T06:03:48.153Z,12.27
2023-09-13T06:08:50.968Z,12.38
2023-09-13T06:13:53.688Z,10.55
2023-09-13T06:18:56.452Z,8.02
2023-09-13T06:23:59.168Z,7.07
2023-09-13T06:29:03.446Z,6.57
2023-09-13T06:34:21.986Z,6.93
2023-09-13T06:39:28.324Z,6.70
2023-09-13T06:44:45.495Z,5.93
2023-09-13T06:49:51.861Z,6.15
2023-09-13T06:54:56.058Z,5.65
2023-09-13T07:00:04.530Z,6.43
2023-09-13T07:10:14.158Z,13.65
2023-09-13T07:34:52.432Z,5.80
2023-09-13T07:39:55.389Z,5.07
2023-09-13T07:44:58.194Z,5.20
2023-09-13T07:50:01.713Z,4.28
2023-09-13T07:55:06.486Z,4.70
2023-09-13T08:00:09.750Z,3.80
2023-09-13T08:05:14.938Z,4.28
2023-09-13T08:10:17.708Z,4.78
2023-09-13T08:15:30.863Z,4.32
2023-09-13T08:20:41.678Z,4.47
2023-09-13T08:25:45.526Z,4.30
2023-09-13T08:30:50.509Z,4.22
2023-09-13T08:35:53.212Z,4.28
2023-09-13T08:40:56.309Z,4.13
2023-09-13T08:46:01.486Z,3.60
2023-09-13T08:51:05.362Z,3.88
2023-09-13T08:56:10.236Z,4.15
2023-09-13T09:01:14.816Z,4.15
2023-09-13T09:06:19.389Z,4.10
2023-09-13T09:11:27.104Z,3.92
2023-09-13T09:16:32.363Z,8.15
2023-09-13T09:21:39.272Z,6.30
2023-09-13T09:26:41.887Z,4.25
2023-09-13T09:31:44.623Z,4.28
2023-09-13T09:36:48.312Z,5.03
2023-09-13T09:41:59.549Z,4.60
2023-09-13T09:47:02.256Z,5.13
2023-09-13T09:52:05.934Z,4.57
2023-09-13T09:57:09.584Z,4.10
2023-09-13T10:02:12.360Z,4.55
2023-09-13T10:07:15.256Z,4.90
2023-09-13T10:12:17.936Z,5.03
2023-09-13T10:17:21.690Z,4.88
2023-09-13T10:22:26.800Z,4.50
2023-09-13T10:27:30.897Z,4.07
2023-09-13T10:32:44.094Z,3.78
2023-09-13T10:38:25.917Z,3.65
2023-09-13T10:43:29.186Z,3.60
2023-09-13T10:48:32.739Z,4.10
2023-09-13T10:53:36.464Z,4.90
2023-09-13T10:58:40.540Z,4.05
2023-09-13T11:03:43.971Z,3.88
2023-09-13T11:08:47.433Z,12.10
2023-09-13T11:13:53.900Z,5.63
2023-09-13T11:18:58.552Z,3.95
2023-09-13T11:24:04.662Z,3.75
2023-09-13T11:29:28.886Z,3.90
2023-09-13T11:34:35.972Z,4.03
2023-09-13T11:39:40.061Z,4.15
2023-09-13T11:44:59.090Z,4.00
2023-09-13T11:55:27.083Z,3.97
2023-09-13T12:05:54.059Z,3.72
2023-09-13T12:11:12.853Z,3.95
2023-09-13T12:16:18.973Z,3.30
2023-09-13T12:21:22.019Z,19.13
2023-09-13T12:26:27.461Z,5.75
2023-09-13T12:31:30.060Z,3.80
2023-09-13T12:36:33.658Z,3.97
2023-09-13T12:41:36.410Z,3.92
2023-09-13T12:46:41.207Z,3.92
2023-09-13T12:51:44.340Z,3.45
2023-09-13T12:56:47.008Z,3.75
2023-09-13T13:01:55.911Z,3.80
2023-09-13T13:07:01.157Z,3.60
2023-09-13T13:12:04.267Z,3.55
2023-09-13T13:17:07.012Z,3.05
2023-09-13T13:22:13.245Z,3.60
2023-09-13T13:27:16.038Z,4.15
2023-09-13T13:32:19.060Z,3.85
2023-09-13T13:37:21.657Z,3.40
2023-09-13T13:42:24.368Z,3.60
2023-09-13T13:47:27.132Z,3.97
2023-09-13T13:52:29.852Z,4.63
2023-09-13T13:57:43.489Z,3.47
2023-09-13T14:02:47.869Z,3.42
2023-09-13T14:07:50.920Z,3.85
2023-09-13T14:12:57.573Z,3.60
2023-09-13T14:18:00.402Z,3.50
2023-09-13T14:23:04.310Z,3.83
2023-09-13T14:28:10.709Z,3.70
2023-09-13T14:33:18.140Z,4.00
2023-09-13T14:38:22.214Z,4.47
2023-09-13T14:43:25.066Z,4.28
2023-09-13T14:48:28.021Z,3.88
2023-09-13T14:53:31.018Z,4.60
2023-09-13T14:58:36.475Z,4.25
2023-09-13T15:03:39.670Z,3.80
2023-09-13T15:08:42.525Z,4.25
2023-09-13T15:13:47.269Z,3.83
2023-09-13T15:18:51.180Z,4.63
2023-09-13T15:23:54.076Z,4.35
2023-09-13T15:28:57.883Z,4.50
2023-09-13T15:34:02.398Z,4.88
2023-09-13T15:39:05.998Z,5.22
2023-09-13T15:44:08.684Z,4.95
2023-09-13T15:49:11.548Z,5.90
2023-09-13T15:54:14.833Z,5.20
2023-09-13T15:59:17.515Z,5.63
2023-09-13T16:04:20.435Z,5.75
2023-09-13T16:09:23.227Z,6.97
2023-09-13T16:14:34.457Z,7.47
2023-09-13T16:19:37.409Z,7.78
2023-09-13T16:24:40.168Z,7.68
2023-09-13T16:29:42.905Z,7.95
2023-09-13T16:34:45.682Z,7.30
2023-09-13T16:39:48.408Z,6.45
2023-09-13T16:44:51.092Z,6.35
2023-09-13T16:49:53.806Z,15.38
2023-09-13T16:54:59.412Z,8.38
2023-09-13T17:00:03.048Z,8.15
2023-09-13T17:05:08.115Z,7.15
2023-09-13T17:10:10.936Z,6.93
2023-09-13T17:15:13.639Z,7.18
2023-09-13T17:20:16.592Z,7.25
2023-09-13T17:25:19.339Z,8.43
2023-09-13T17:30:22.211Z,6.65
2023-09-13T17:35:25.161Z,7.93
2023-09-13T17:40:28.659Z,7.30
2023-09-13T17:45:31.726Z,8.38
2023-09-13T17:50:35.277Z,10.80
2023-09-13T17:55:38.014Z,12.00
2023-09-13T18:00:40.963Z,11.80
2023-09-13T18:05:45.321Z,11.00
2023-09-13T18:10:48.126Z,11.38
2023-09-13T18:15:50.967Z,10.60
2023-09-13T18:20:54.183Z,11.13
2023-09-13T18:25:57.097Z,14.50
2023-09-13T18:31:07.699Z,19.48
2023-09-13T18:36:10.600Z,12.60
2023-09-13T18:41:13.344Z,9.80
2023-09-13T18:46:16.362Z,10.88
2023-09-13T18:51:19.305Z,11.48
2023-09-13T18:56:21.968Z,13.10
2023-09-13T19:01:24.748Z,12.20
2023-09-13T19:06:27.640Z,11.45
2023-09-13T19:11:30.417Z,10.43
2023-09-13T19:16:34.698Z,10.02
2023-09-13T19:21:37.982Z,11.32
2023-09-13T19:26:42.171Z,10.95
2023-09-13T19:31:45.619Z,16.20
2023-09-13T19:36:48.396Z,15.80
2023-09-13T19:41:51.414Z,9.63
2023-09-13T19:46:54.175Z,10.98
2023-09-13T19:51:57.004Z,10.10
2023-09-13T19:57:01.756Z,11.38
2023-09-13T20:02:07.112Z,11.63
2023-09-13T20:07:11.389Z,11.18
2023-09-13T20:12:14.029Z,13.38
2023-09-13T20:17:16.719Z,12.60
2023-09-13T20:22:19.363Z,12.30
2023-09-13T20:27:22.029Z,12.55
2023-09-13T20:32:24.674Z,13.23
2023-09-13T20:37:28.263Z,14.77
2023-09-13T20:42:31.089Z,13.15
2023-09-13T20:47:35.832Z,13.57
2023-09-13T20:52:38.844Z,13.40
2023-09-13T20:57:41.517Z,13.27
2023-09-13T21:02:44.203Z,11.98
2023-09-13T21:07:46.825Z,14.48
2023-09-13T21:12:49.567Z,13.82
2023-09-13T21:17:52.457Z,13.77
2023-09-13T21:22:55.075Z,13.50
2023-09-13T21:27:57.728Z,12.88
2023-09-13T21:33:00.608Z,13.68
2023-09-13T21:38:03.433Z,12.68
2023-09-13T21:43:06.074Z,13.27
2023-09-13T21:48:10.453Z,12.82
2023-09-13T21:53:16.897Z,12.77
2023-09-13T21:58:21.081Z,12.35
2023-09-13T22:03:25.901Z,12.55
2023-09-13T22:08:28.654Z,11.98
2023-09-13T22:13:31.383Z,11.50
2023-09-13T22:18:34.207Z,11.30
2023-09-13T22:23:37.017Z,10.80
2023-09-13T22:28:39.752Z,11.50
2023-09-13T22:33:42.483Z,11.38
2023-09-13T22:38:54.421Z,11.63
2023-09-13T22:44:05.306Z,13.43
2023-09-13T22:49:08.026Z,12.35
2023-09-13T22:54:10.723Z,11.30
2023-09-13T22:59:13.446Z,12.38
2023-09-13T23:04:16.354Z,11.73
2023-09-13T23:09:20.048Z,13.38
2023-09-13T23:14:23.748Z,12.82
2023-09-13T23:19:26.609Z,12.98
2023-09-13T23:24:30.789Z,13.18
2023-09-13T23:29:34.153Z,12.73
2023-09-13T23:34:36.888Z,11.73
2023-09-13T23:39:39.513Z,12.65
2023-09-13T23:44:42.187Z,12.30
2023-09-13T23:49:44.852Z,12.55
2023-09-13T23:54:47.560Z,12.25
2023-09-13T23:59:51.936Z,10.77
